Kezdőlap
METAR-TAF:

METAR-TAF

Repülőterek :

Irkutszk, Oroszország

földrajzi szélesség: 52-16N, földrajzi hosszúság: 104-19E, magasság: 513 m

Jelenlegi meteorológiai megfigyelések

A jelentés 31 perccel ezelõtt készült, 02:00 UTC
Dél-délkeleti szél 6 kt, délkeleti és dél-délnyugati között változik
Hőmérséklet 7°C
Páratartalom 36%
Légköri nyomás 1017 hPa
Látótávolság 10 km, vagy több
felhőtlen 1500 m magasságban, és nincs gomolyfelhõ

METAR: UIII 250200Z 16003MPS 140V200 CAVOK 07/M07 Q1017 R12/60D NOSIG RMK QFE720/0960

Idő: 10:31 (02:31 UTC)

Előrejelzés

A jelentés 3 órával és 31 perccel ezelõtt készült, 23:00 UTC
Az előrejelzés 25-én 00 óra UTC és 25-én 24 óra UTC között érvényes
Dél-délkeleti szél 10 kt
Látótávolság 10 km, vagy több
felhőtlen 1500 m magasságban, és nincs gomolyfelhõ

TAF: UIII 242300Z 2500/2524 16005MPS CAVOK

Meteorológiai megfigyelések és előrejelzések több, mint 4000 repülőtéren (METAR és TAF jelentéseket).

A térképen piros és sárga pontok jelzik az elérhető meteorológiai állomásokat.

Mozgassa az egeret a pont fölött, hogy megjelenjen az állomás neve.

Azután kattintson az időjárási megfigyelések és előrejelzések megtekintéséhez.

A térkép megváltoztatása: kattintson a fekete keresztel jelölt zöld gombra ráközelítéshez, a vonallal jelölt zöld gombra távolításhoz, vagy a zöld nyilakra a szomszédos térképek eléréséhez.


METAR-TAF: